Time;durP1;ratioP1;P1;durP2;ratioP2;P2;SDS_P1;SDS_P2;PMS_P1;PMS_P2;Temp;Humidity;BMP_temperature;BMP_pressure;BME280_temperature;BME280_humidity;BME280_pressure;Samples;Min_cycle;Max_cycle;Signal;HPM_P1;HPM_P2
2022/11/18 00:02:19;;;;;;;5.45;1.67;;;13.50;75.10;;;;;;7371441;19;20102;-80
2022/11/18 00:04:48;;;;;;;7.75;1.80;;;13.60;75.30;;;;;;7370849;19;20034;-80
2022/11/18 00:07:19;;;;;;;12.00;1.70;;;13.60;75.20;;;;;;7372042;19;20098;-79
2022/11/18 00:09:48;;;;;;;6.65;1.67;;;13.50;75.70;;;;;;7372130;19;20035;-81
2022/11/18 00:14:58;;;;;;;8.35;1.55;;;13.60;75.50;;;;;;7394787;19;20018;-81
2022/11/18 00:17:26;;;;;;;4.22;1.60;;;13.70;75.40;;;;;;7369960;19;20018;-80
2022/11/18 00:19:55;;;;;;;5.85;1.92;;;13.80;75.20;;;;;;7370571;19;20117;-80
2022/11/18 00:22:26;;;;;;;7.65;1.48;;;13.80;75.10;;;;;;7370919;19;20018;-81
2022/11/18 00:24:55;;;;;;;6.78;1.95;;;13.80;75.00;;;;;;7370125;19;20629;-80
2022/11/18 00:27:24;;;;;;;4.75;1.60;;;13.80;74.80;;;;;;7371119;19;20022;-80
2022/11/18 00:29:52;;;;;;;5.93;1.73;;;13.80;74.70;;;;;;7388478;19;20082;-80
2022/11/18 00:32:21;;;;;;;5.00;1.60;;;13.80;74.60;;;;;;7369794;19;20086;-79
2022/11/18 00:34:50;;;;;;;5.82;1.63;;;13.80;74.70;;;;;;7369957;19;20018;-79
2022/11/18 00:37:18;;;;;;;5.57;1.52;;;13.80;74.80;;;;;;7368142;19;20085;-79
2022/11/18 00:39:50;;;;;;;8.07;1.70;;;13.80;74.60;;;;;;7367827;19;20015;-80
2022/11/18 00:44:59;;;;;;;7.07;1.42;;;13.80;74.80;;;;;;7392328;19;20050;-80
2022/11/18 00:47:28;;;;;;;4.97;1.70;;;13.80;74.70;;;;;;7369000;19;20025;-80
2022/11/18 00:49:57;;;;;;;11.95;1.40;;;13.70;74.80;;;;;;7368310;19;20097;-79
2022/11/18 00:52:25;;;;;;;6.50;1.50;;;13.50;75.30;;;;;;7370321;19;20011;-81
2022/11/18 00:54:57;;;;;;;6.15;1.73;;;13.60;76.20;;;;;;7370319;19;20741;-80
2022/11/18 00:57:25;;;;;;;6.45;1.50;;;13.60;75.40;;;;;;7371610;19;20101;-80
2022/11/18 00:59:54;;;;;;;8.70;1.65;;;13.60;75.10;;;;;;7391366;19;20029;-80
2022/11/18 01:02:23;;;;;;;5.63;1.50;;;13.70;75.10;;;;;;7368182;19;20007;-80
2022/11/18 01:04:52;;;;;;;4.65;1.20;;;13.60;75.00;;;;;;7368585;19;20025;-80
2022/11/18 01:07:20;;;;;;;3.45;1.30;;;13.60;75.10;;;;;;7370152;19;20010;-81
2022/11/18 01:09:49;;;;;;;7.03;1.27;;;13.50;75.10;;;;;;7367956;19;20025;-80
2022/11/18 01:15:01;;;;;;;9.70;1.35;;;13.70;75.10;;;;;;7391775;19;20017;-80
2022/11/18 01:17:32;;;;;;;8.77;1.50;;;13.70;75.00;;;;;;7368650;19;20102;-80
2022/11/18 01:20:01;;;;;;;8.75;1.30;;;13.70;74.80;;;;;;7370639;19;20022;-80
2022/11/18 01:22:30;;;;;;;2.03;1.17;;;13.70;74.60;;;;;;7369420;19;20088;-81
2022/11/18 01:24:58;;;;;;;8.23;1.42;;;13.70;74.60;;;;;;7369099;19;20027;-80
2022/11/18 01:27:30;;;;;;;5.88;1.10;;;13.70;74.70;;;;;;7371999;19;20109;-81
2022/11/18 01:29:58;;;;;;;8.48;1.40;;;13.60;74.80;;;;;;7391227;19;20115;-81
2022/11/18 01:32:27;;;;;;;3.00;1.10;;;13.60;75.00;;;;;;7368221;19;20686;-80
2022/11/18 01:34:56;;;;;;;6.93;1.45;;;13.60;75.00;;;;;;7369191;19;20017;-80
2022/11/18 01:37:25;;;;;;;7.35;1.40;;;13.60;75.10;;;;;;7371198;19;20022;-80
2022/11/18 01:39:53;;;;;;;6.22;1.42;;;13.50;75.00;;;;;;7370972;19;20026;-80
2022/11/18 01:42:22;;;;;;;4.78;1.40;;;13.40;75.20;;;;;;7373617;19;20086;-80
2022/11/18 01:45:08;;;;;;;12.02;1.30;;;13.40;75.30;;;;;;7395302;19;20086;-81
2022/11/18 01:47:42;;;;;;;4.88;1.30;;;13.50;76.10;;;;;;7373991;19;20015;-80
2022/11/18 01:50:12;;;;;;;5.57;1.20;;;13.40;75.20;;;;;;7374991;19;20014;-81
2022/11/18 01:52:42;;;;;;;5.25;1.30;;;13.30;75.50;;;;;;7374040;19;20098;-81
2022/11/18 01:55:16;;;;;;;6.55;1.42;;;13.40;75.50;;;;;;7376102;19;20053;-81
2022/11/18 01:57:48;;;;;;;9.68;1.30;;;13.40;75.40;;;;;;7375180;19;20024;-81
2022/11/18 02:00:20;;;;;;;5.47;1.27;;;13.50;75.40;;;;;;7372287;19;20106;-80
2022/11/18 02:02:48;;;;;;;;;;;13.40;75.20;;;;;;7397579;19;20048;-80
2022/11/18 02:05:18;;;;;;;4.57;1.00;;;13.50;75.40;;;;;;7375309;19;20022;-81
2022/11/18 02:07:48;;;;;;;6.80;1.40;;;13.50;75.20;;;;;;7374864;19;20565;-81
2022/11/18 02:10:23;;;;;;;13.48;1.80;;;13.50;75.20;;;;;;7373347;19;20544;-81
2022/11/18 02:12:54;;;;;;;6.03;1.33;;;13.40;75.10;;;;;;7373036;19;20025;-81
2022/11/18 02:15:31;;;;;;;3.10;1.10;;;13.30;75.70;;;;;;7374644;19;20026;-80
2022/11/18 02:18:05;;;;;;;4.32;1.50;;;13.30;75.90;;;;;;7396110;19;20010;-81
2022/11/18 02:20:37;;;;;;;5.28;2.00;;;13.20;76.10;;;;;;7373901;19;20119;-81
2022/11/18 02:23:45;;;;;;;9.07;1.65;;;13.30;76.00;;;;;;7373377;19;20145;-81
2022/11/18 02:26:43;;;;;;;6.95;2.13;;;13.30;75.70;;;;;;7374846;19;20028;-81
2022/11/18 02:29:19;;;;;;;7.63;2.30;;;13.40;75.60;;;;;;7373841;19;20599;-81
2022/11/18 02:31:56;;;;;;;10.18;2.60;;;13.40;75.40;;;;;;7372622;19;20125;-81
2022/11/18 02:34:39;;;;;;;9.23;1.70;;;13.40;75.40;;;;;;7372958;19;20877;-81
2022/11/18 02:37:17;;;;;;;9.18;1.30;;;13.40;75.20;;;;;;7374278;19;20039;-81
2022/11/18 02:39:50;;;;;;;3.70;1.33;;;13.40;75.30;;;;;;7373239;19;20019;-81
2022/11/18 02:42:19;;;;;;;6.72;1.40;;;13.40;75.20;;;;;;7374608;19;20028;-80
2022/11/18 02:44:56;;;;;;;5.15;1.13;;;13.20;75.90;;;;;;7394201;19;20089;-80
2022/11/18 02:47:28;;;;;;;3.33;1.40;;;13.20;76.00;;;;;;7374652;19;20391;-80
2022/11/18 02:50:00;;;;;;;4.80;1.38;;;13.20;76.10;;;;;;7375292;19;20018;-81
2022/11/18 02:52:29;;;;;;;5.00;1.20;;;13.20;76.00;;;;;;7373681;19;20102;-82
2022/11/18 02:54:59;;;;;;;4.75;1.10;;;13.20;75.90;;;;;;7371852;19;20089;-81
2022/11/18 02:57:31;;;;;;;7.20;1.52;;;13.20;75.90;;;;;;7373147;19;20018;-80
2022/11/18 03:00:03;;;;;;;4.70;1.17;;;13.20;75.70;;;;;;7395549;19;20086;-80
2022/11/18 03:02:43;;;;;;;3.75;1.38;;;13.20;75.60;;;;;;7376577;19;20031;-81
2022/11/18 03:05:18;;;;;;;6.57;1.30;;;13.20;75.80;;;;;;7373392;19;20064;-81
2022/11/18 03:07:52;;;;;;;4.68;1.55;;;13.10;75.80;;;;;;7373370;19;20014;-80
2022/11/18 03:10:23;;;;;;;6.55;1.33;;;13.20;75.90;;;;;;7372445;19;20123;-80
2022/11/18 03:13:00;;;;;;;4.32;1.30;;;13.20;75.80;;;;;;7371951;19;20017;-80
2022/11/18 03:15:38;;;;;;;7.43;1.95;;;13.20;75.80;;;;;;7372465;19;20093;-81
2022/11/18 03:18:17;;;;;;;5.07;1.60;;;13.20;75.70;;;;;;7394309;19;20082;-80
2022/11/18 03:20:52;;;;;;;4.82;1.52;;;13.20;75.50;;;;;;7375103;19;20021;-81
2022/11/18 03:23:27;;;;;;;4.03;1.45;;;13.20;75.50;;;;;;7373108;19;20011;-81
2022/11/18 03:25:59;;;;;;;10.73;2.13;;;13.20;75.30;;;;;;7373239;19;20081;-81
2022/11/18 03:28:35;;;;;;;8.07;1.50;;;13.20;75.30;;;;;;7373727;19;20029;-80
2022/11/18 03:31:13;;;;;;;6.60;1.67;;;13.20;75.30;;;;;;7372175;19;20035;-80
2022/11/18 03:33:46;;;;;;;5.45;1.88;;;13.20;75.40;;;;;;7371690;19;20006;-81
2022/11/18 03:36:22;;;;;;;9.15;2.17;;;13.20;75.30;;;;;;7383761;19;20045;-79
2022/11/18 03:38:55;;;;;;;8.10;1.80;;;13.20;75.30;;;;;;7393493;19;20505;-80
2022/11/18 03:41:27;;;;;;;6.38;1.85;;;13.20;75.20;;;;;;7372544;19;20011;-81
2022/11/18 03:44:01;;;;;;;7.68;1.80;;;13.10;75.00;;;;;;7372458;19;20014;-80
2022/11/18 03:46:38;;;;;;;6.50;1.80;;;13.10;75.00;;;;;;7372568;19;20097;-80
2022/11/18 03:49:09;;;;;;;4.13;1.60;;;13.10;75.00;;;;;;7372668;19;20110;-80
2022/11/18 03:51:43;;;;;;;5.03;1.50;;;13.10;74.90;;;;;;7371717;19;20019;-80
2022/11/18 03:54:18;;;;;;;5.22;1.38;;;13.10;75.20;;;;;;7393611;19;20304;-80
2022/11/18 03:56:53;;;;;;;8.65;1.60;;;13.00;75.20;;;;;;7372484;19;20113;-81
2022/11/18 03:59:26;;;;;;;9.00;1.40;;;13.00;75.50;;;;;;7372832;19;20115;-81
2022/11/18 04:02:01;;;;;;;5.70;1.10;;;13.00;75.80;;;;;;7371681;19;20010;-81
2022/11/18 04:04:30;;;;;;;6.13;1.35;;;12.90;75.90;;;;;;7369965;19;20082;-81
2022/11/18 04:07:05;;;;;;;8.32;1.80;;;13.00;75.90;;;;;;7372556;19;20085;-81
2022/11/18 04:09:39;;;;;;;8.65;1.42;;;12.80;76.10;;;;;;7374755;19;20021;-82
2022/11/18 04:12:12;;;;;;;9.90;1.70;;;12.90;76.20;;;;;;7392161;19;20089;-81
2022/11/18 04:14:42;;;;;;;11.60;1.70;;;12.90;76.10;;;;;;7371217;19;20022;-81
2022/11/18 04:17:15;;;;;;;14.13;1.80;;;12.90;76.20;;;;;;7372555;19;20038;-81
2022/11/18 04:19:44;;;;;;;7.20;1.77;;;12.90;76.20;;;;;;7371784;19;20013;-81
2022/11/18 04:22:13;;;;;;;7.10;1.48;;;13.00;76.10;;;;;;7372750;19;20035;-81
2022/11/18 04:24:42;;;;;;;15.07;1.80;;;13.00;76.10;;;;;;7372974;19;20039;-80
2022/11/18 04:27:11;;;;;;;10.10;1.88;;;13.00;76.20;;;;;;7394458;19;20089;-80
2022/11/18 04:29:40;;;;;;;11.95;1.50;;;13.00;76.10;;;;;;7370994;19;20074;-80
2022/11/18 04:32:08;;;;;;;8.65;1.63;;;12.90;76.70;;;;;;7370111;19;20088;-80
2022/11/18 04:34:40;;;;;;;11.52;1.80;;;12.90;75.90;;;;;;7370972;19;20098;-80
2022/11/18 04:37:08;;;;;;;13.02;1.98;;;12.80;76.10;;;;;;7370408;19;20110;-81
2022/11/18 04:39:37;;;;;;;11.73;2.13;;;12.80;76.30;;;;;;7371431;19;20018;-80
2022/11/18 04:42:06;;;;;;;9.82;1.88;;;12.70;76.20;;;;;;7392914;19;20029;-81
2022/11/18 04:44:36;;;;;;;11.98;2.00;;;12.70;76.60;;;;;;7370719;19;20074;-81
2022/11/18 04:47:07;;;;;;;18.15;2.03;;;12.60;76.70;;;;;;7369467;19;20070;-80
2022/11/18 04:49:38;;;;;;;17.63;2.17;;;12.60;77.00;;;;;;7369906;19;20034;-81
2022/11/18 04:52:07;;;;;;;11.18;1.75;;;12.50;77.20;;;;;;7371285;19;20094;-80
2022/11/18 04:54:36;;;;;;;10.07;1.88;;;12.60;77.00;;;;;;7368776;19;21038;-80
2022/11/18 04:57:05;;;;;;;14.45;1.88;;;12.60;76.90;;;;;;7390448;19;20400;-81
2022/11/18 04:59:34;;;;;;;7.78;1.67;;;12.60;76.70;;;;;;7368429;19;20086;-81
2022/11/18 05:02:03;;;;;;;9.45;2.15;;;12.60;76.90;;;;;;7369935;19;20122;-80
2022/11/18 05:04:34;;;;;;;10.63;1.88;;;12.70;76.80;;;;;;7370877;19;20026;-80
2022/11/18 05:07:06;;;;;;;8.65;1.73;;;12.70;76.50;;;;;;7369423;19;20082;-81
2022/11/18 05:09:35;;;;;;;13.52;1.95;;;12.60;76.60;;;;;;7368874;19;20584;-80
2022/11/18 05:14:45;;;;;;;14.38;1.90;;;12.50;76.60;;;;;;7368764;19;20021;-81
2022/11/18 05:17:14;;;;;;;10.57;2.05;;;12.50;76.90;;;;;;7377047;19;20019;-81
2022/11/18 05:19:43;;;;;;;19.00;2.03;;;12.60;76.70;;;;;;7378229;19;20112;-82
2022/11/18 05:22:15;;;;;;;12.35;2.08;;;12.60;76.40;;;;;;7375637;19;20010;-81
2022/11/18 05:24:44;;;;;;;13.07;2.13;;;12.60;76.40;;;;;;7379362;19;20027;-80
2022/11/18 05:27:13;;;;;;;17.30;2.33;;;12.60;76.30;;;;;;7399321;19;20035;-80
2022/11/18 05:29:42;;;;;;;15.38;2.42;;;12.60;76.20;;;;;;7377055;19;20134;-80
2022/11/18 05:32:11;;;;;;;14.75;2.00;;;12.40;76.40;;;;;;7377431;19;20018;-81
2022/11/18 05:34:41;;;;;;;11.07;1.90;;;12.50;76.60;;;;;;7377816;19;20010;-81
2022/11/18 05:37:10;;;;;;;9.82;1.88;;;12.40;76.70;;;;;;7376119;19;20120;-81
2022/11/18 05:39:41;;;;;;;15.68;2.53;;;12.50;76.60;;;;;;7379437;19;20010;-81
2022/11/18 05:44:52;;;;;;;12.52;1.67;;;12.40;76.40;;;;;;7376344;19;20021;-80
2022/11/18 05:47:23;;;;;;;13.88;2.28;;;12.40;76.40;;;;;;7375782;19;20018;-80
2022/11/18 05:49:52;;;;;;;16.85;2.20;;;12.40;76.60;;;;;;7375951;19;20098;-81
2022/11/18 05:52:21;;;;;;;12.95;2.10;;;12.40;76.30;;;;;;7376100;19;20046;-80
2022/11/18 05:54:53;;;;;;;12.65;2.42;;;12.50;76.30;;;;;;7375252;19;20082;-80
2022/11/18 05:57:21;;;;;;;10.80;2.10;;;12.50;76.30;;;;;;7375817;19;20090;-80
2022/11/18 05:59:50;;;;;;;15.82;3.05;;;12.50;76.20;;;;;;7398746;19;20022;-80
2022/11/18 06:02:24;;;;;;;23.25;4.22;;;12.60;76.10;;;;;;7375232;19;20014;-80
2022/11/18 06:04:56;;;;;;;1200.72;39.85;;;12.60;76.00;;;;;;7375172;19;20050;-80
2022/11/18 06:07:29;;;;;;;22.63;2.88;;;12.60;76.60;;;;;;7376472;19;20022;-80
2022/11/18 06:10:06;;;;;;;235.07;9.23;;;12.60;76.70;;;;;;7374341;19;20034;-80
2022/11/18 06:12:40;;;;;;;19.08;2.72;;;12.50;76.60;;;;;;7372773;19;20082;-81
2022/11/18 06:15:13;;;;;;;23.13;3.03;;;12.50;76.80;;;;;;7395554;19;20031;-80
2022/11/18 06:17:46;;;;;;;22.80;3.00;;;12.50;76.60;;;;;;7375354;19;20461;-81
2022/11/18 06:20:15;;;;;;;20.23;2.47;;;12.50;76.10;;;;;;7375783;19;20016;-80
2022/11/18 06:22:43;;;;;;;21.38;2.83;;;12.50;76.10;;;;;;7374326;19;20024;-80
2022/11/18 06:25:15;;;;;;;13.73;2.72;;;12.50;75.70;;;;;;7375623;19;20010;-80
2022/11/18 06:27:45;;;;;;;17.35;2.20;;;12.50;75.70;;;;;;7372645;19;20020;-79
2022/11/18 06:30:15;;;;;;;18.02;2.58;;;12.50;75.60;;;;;;7395849;19;20097;-80
2022/11/18 06:32:44;;;;;;;13.65;2.40;;;12.50;75.50;;;;;;7375425;19;20047;-80
2022/11/18 06:35:13;;;;;;;18.20;2.42;;;12.50;75.60;;;;;;7373574;19;20021;-80
2022/11/18 06:37:42;;;;;;;13.40;2.58;;;12.50;75.40;;;;;;7374499;19;20024;-80
2022/11/18 06:40:12;;;;;;;8.05;2.03;;;12.50;75.40;;;;;;7374563;19;20101;-80
2022/11/18 06:45:25;;;;;;;17.63;2.88;;;12.50;75.40;;;;;;7374827;19;20021;-80
2022/11/18 06:47:51;;;;;;;12.38;2.50;;;12.40;75.50;;;;;;7397274;19;20118;-81
2022/11/18 06:50:20;;;;;;;17.23;2.88;;;12.40;75.50;;;;;;7373648;19;20114;-80
2022/11/18 06:52:48;;;;;;;19.25;2.65;;;12.40;75.50;;;;;;7388179;19;20054;-82
2022/11/18 06:55:17;;;;;;;8.00;2.35;;;12.40;75.50;;;;;;7383604;19;20078;-81
2022/11/18 06:57:48;;;;;;;20.48;2.95;;;12.40;75.70;;;;;;7375190;19;20593;-81
2022/11/18 07:00:21;;;;;;;13.90;2.63;;;12.30;75.70;;;;;;7374402;19;20031;-80
2022/11/18 07:02:49;;;;;;;17.73;2.50;;;12.30;75.90;;;;;;7395994;19;20060;-81
2022/11/18 07:05:18;;;;;;;20.25;2.47;;;12.20;75.80;;;;;;7375146;19;20010;-82
2022/11/18 07:07:47;;;;;;;14.15;2.78;;;12.20;76.10;;;;;;7374424;19;20070;-81
2022/11/18 07:10:15;;;;;;;10.27;2.70;;;12.10;76.30;;;;;;7372439;19;20387;-82
2022/11/18 07:12:44;;;;;;;14.80;2.70;;;12.00;76.90;;;;;;7372895;19;20085;-80
2022/11/18 07:15:16;;;;;;;9.70;2.00;;;12.10;76.90;;;;;;7392402;19;20026;-81
2022/11/18 07:17:44;;;;;;;;;;;12.10;76.70;;;;;;7374544;19;20015;-81
2022/11/18 07:20:13;;;;;;;24.60;2.58;;;12.10;76.80;;;;;;7374031;19;20000;-82
2022/11/18 07:22:42;;;;;;;27.05;2.60;;;11.80;77.50;;;;;;7373146;19;20039;-81
2022/11/18 07:25:11;;;;;;;19.10;2.80;;;11.80;77.70;;;;;;7374830;19;20081;-82
2022/11/18 07:27:40;;;;;;;17.20;2.70;;;12.00;77.50;;;;;;7373328;19;20073;-81
2022/11/18 07:30:10;;;;;;;18.70;3.03;;;12.00;77.00;;;;;;7395909;19;20023;-80
2022/11/18 07:32:41;;;;;;;16.45;2.35;;;12.00;77.10;;;;;;7373624;19;20011;-81
2022/11/18 07:35:11;;;;;;;15.73;2.50;;;12.10;77.10;;;;;;7373503;19;20091;-81
2022/11/18 07:37:39;;;;;;;19.55;2.83;;;12.00;76.90;;;;;;7370449;19;20017;-81
2022/11/18 07:40:10;;;;;;;19.63;2.65;;;12.10;76.90;;;;;;7374370;19;20025;-81
2022/11/18 07:42:44;;;;;;;12.97;2.30;;;12.10;76.90;;;;;;7372827;19;20018;-81
2022/11/18 07:45:13;;;;;;;9.05;2.67;;;12.10;76.70;;;;;;7393413;19;20762;-81
2022/11/18 07:47:44;;;;;;;19.13;3.47;;;12.20;76.70;;;;;;7371692;19;20106;-81
2022/11/18 07:50:13;;;;;;;11.63;2.75;;;12.30;76.60;;;;;;7372096;19;20014;-80
2022/11/18 07:52:41;;;;;;;12.88;2.67;;;12.30;76.40;;;;;;7373093;19;20472;-81
2022/11/18 07:55:11;;;;;;;10.48;2.60;;;12.30;76.60;;;;;;7372248;19;20426;-81
2022/11/18 07:57:40;;;;;;;11.88;2.40;;;12.30;76.80;;;;;;7371041;19;20010;-80
2022/11/18 08:00:10;;;;;;;20.20;3.30;;;12.30;76.90;;;;;;7393779;19;20074;-80
2022/11/18 08:02:39;;;;;;;17.92;2.85;;;12.20;77.40;;;;;;7371727;19;20021;-80
2022/11/18 08:05:11;;;;;;;23.70;3.45;;;12.10;77.90;;;;;;7371865;19;20014;-83
2022/11/18 08:07:39;;;;;;;17.17;2.83;;;12.20;78.30;;;;;;7369773;19;20011;-84
2022/11/18 08:10:09;;;;;;;14.38;2.67;;;12.30;78.20;;;;;;7368862;19;20094;-80
2022/11/18 08:12:38;;;;;;;23.90;3.25;;;12.40;77.70;;;;;;7370150;19;20086;-81
2022/11/18 08:15:08;;;;;;;42.58;17.65;;;12.50;77.20;;;;;;7393497;19;20018;-80
2022/11/18 08:17:36;;;;;;;54.42;16.15;;;12.50;77.10;;;;;;7370992;19;20873;-81
2022/11/18 08:20:05;;;;;;;18.88;5.75;;;12.60;76.90;;;;;;7371103;19;20011;-82
2022/11/18 08:22:37;;;;;;;15.50;4.85;;;12.70;76.80;;;;;;7373519;19;20670;-83
2022/11/18 08:25:06;;;;;;;11.43;3.60;;;12.80;76.50;;;;;;7371638;19;20025;-84
2022/11/18 08:27:35;;;;;;;14.63;3.40;;;12.70;77.20;;;;;;7372548;19;20151;-83
2022/11/18 08:30:04;;;;;;;14.60;2.53;;;12.80;77.20;;;;;;7391473;19;20098;-83
2022/11/18 08:32:32;;;;;;;9.40;2.42;;;12.60;76.60;;;;;;7369608;19;20517;-83
2022/11/18 08:35:01;;;;;;;17.05;3.03;;;12.70;76.50;;;;;;7370987;19;20559;-82
2022/11/18 08:37:30;;;;;;;18.38;3.00;;;12.80;76.40;;;;;;7371665;19;20049;-83
2022/11/18 08:40:01;;;;;;;9.75;2.63;;;12.90;76.30;;;;;;7371033;19;20018;-83
2022/11/18 08:42:30;;;;;;;13.32;2.58;;;13.10;76.20;;;;;;7372370;19;20094;-83
2022/11/18 08:44:58;;;;;;;12.10;2.75;;;13.20;76.50;;;;;;7390774;19;20018;-81
2022/11/18 08:47:27;;;;;;;14.60;2.50;;;13.20;75.30;;;;;;7370950;19;20021;-83
2022/11/18 08:49:56;;;;;;;12.75;1.98;;;13.10;75.00;;;;;;7371975;19;20469;-83
2022/11/18 08:52:24;;;;;;;15.88;2.22;;;13.00;75.30;;;;;;7377271;19;20482;-82
2022/11/18 08:54:53;;;;;;;16.02;2.25;;;13.00;75.40;;;;;;7378700;19;20090;-82
2022/11/18 08:57:25;;;;;;;12.95;2.10;;;13.10;75.20;;;;;;7380130;19;20035;-84
2022/11/18 08:59:53;;;;;;;13.15;1.75;;;13.10;75.30;;;;;;7401034;19;20451;-82
2022/11/18 09:02:24;;;;;;;11.30;1.67;;;13.10;75.20;;;;;;7378058;19;20011;-83
2022/11/18 09:04:54;;;;;;;11.60;2.00;;;12.80;76.10;;;;;;7377892;19;20014;-84
2022/11/18 09:07:23;;;;;;;10.88;2.28;;;12.80;76.20;;;;;;7379710;19;20081;-84
2022/11/18 09:09:52;;;;;;;16.60;2.47;;;12.90;76.40;;;;;;7376256;19;20074;-81
2022/11/18 09:12:23;;;;;;;17.75;2.60;;;12.90;76.10;;;;;;7377873;19;20018;-83
2022/11/18 09:14:52;;;;;;;16.65;2.50;;;12.90;76.10;;;;;;7398948;19;20061;-84
2022/11/18 09:17:24;;;;;;;11.75;1.95;;;13.10;76.20;;;;;;7376932;19;20014;-85
2022/11/18 09:19:52;;;;;;;15.75;2.38;;;13.10;75.90;;;;;;7379460;19;20015;-80
2022/11/18 09:22:21;;;;;;;10.68;2.40;;;13.20;75.70;;;;;;7377194;19;20021;-82
2022/11/18 09:24:50;;;;;;;7.88;1.80;;;13.20;75.60;;;;;;7376418;19;20011;-82
2022/11/18 09:27:18;;;;;;;8.82;1.60;;;13.10;75.80;;;;;;7376831;19;20561;-81
2022/11/18 09:29:50;;;;;;;13.02;2.20;;;13.00;75.90;;;;;;7395122;19;20545;-80
2022/11/18 09:32:19;;;;;;;9.82;2.08;;;13.10;76.20;;;;;;7375002;19;21374;-82
2022/11/18 09:34:47;;;;;;;7.63;1.52;;;13.10;76.10;;;;;;7377255;19;20021;-82
2022/11/18 09:37:16;;;;;;;8.85;1.67;;;13.30;75.90;;;;;;7376627;19;20022;-80
2022/11/18 09:39:45;;;;;;;9.60;1.75;;;13.40;75.60;;;;;;7376639;19;20077;-80
2022/11/18 09:42:30;;;;;;;13.57;2.00;;;13.40;75.10;;;;;;7398413;19;20044;-80
2022/11/18 09:45:12;;;;;;;7.97;1.83;;;13.30;75.50;;;;;;7374694;19;20018;-81
2022/11/18 09:47:41;;;;;;;8.25;2.42;;;13.40;75.50;;;;;;7375806;19;20019;-80
2022/11/18 09:50:14;;;;;;;11.90;1.75;;;13.40;75.20;;;;;;7374877;19;20361;-79
2022/11/18 09:52:48;;;;;;;6.93;1.80;;;13.30;75.30;;;;;;7375598;19;20026;-80
2022/11/18 09:55:19;;;;;;;11.02;1.85;;;13.40;75.50;;;;;;7373660;19;20018;-80
2022/11/18 09:57:50;;;;;;;8.40;1.50;;;13.40;75.40;;;;;;7373557;19;20058;-84
2022/11/18 10:00:24;;;;;;;10.40;1.70;;;13.50;75.20;;;;;;7375979;19;20025;-81
2022/11/18 10:03:00;;;;;;;15.43;1.92;;;13.50;75.00;;;;;;7399502;19;20023;-81
2022/11/18 10:05:31;;;;;;;15.85;2.28;;;13.50;75.00;;;;;;7373669;19;20074;-81
2022/11/18 10:08:23;;;;;;;7.57;1.58;;;13.40;75.50;;;;;;7376250;19;20018;-80
2022/11/18 10:10:56;;;;;;;;;;;13.50;75.50;;;;;;7374256;19;20011;-78
2022/11/18 10:13:46;;;;;;;12.55;1.70;;;13.60;75.40;;;;;;7374743;19;20344;-79
2022/11/18 10:16:31;;;;;;;10.00;1.80;;;13.20;75.50;;;;;;7373885;19;20028;-79
2022/11/18 10:19:11;;;;;;;10.90;1.80;;;13.40;75.80;;;;;;7375831;19;20017;-79
2022/11/18 10:21:52;;;;;;;12.43;1.70;;;13.50;75.50;;;;;;7375290;19;20019;-79
2022/11/18 10:24:23;;;;;;;8.68;1.50;;;13.60;75.40;;;;;;7374222;19;20031;-79
2022/11/18 10:26:57;;;;;;;9.93;1.45;;;13.70;75.00;;;;;;7395923;19;20042;-79
2022/11/18 10:29:26;;;;;;;9.15;2.08;;;13.50;75.20;;;;;;7374269;19;20019;-79
2022/11/18 10:32:03;;;;;;;15.73;2.30;;;13.70;75.20;;;;;;7374712;19;20074;-79
2022/11/18 10:34:32;;;;;;;6.57;1.50;;;13.70;75.40;;;;;;7373040;19;20082;-79
2022/11/18 10:37:02;;;;;;;8.05;2.25;;;13.80;75.40;;;;;;7371631;19;20033;-79
2022/11/18 10:39:31;;;;;;;8.90;1.80;;;13.70;74.80;;;;;;7372249;19;20033;-78
2022/11/18 10:42:03;;;;;;;9.15;1.60;;;13.80;74.80;;;;;;7394214;19;20029;-80
2022/11/18 10:44:37;;;;;;;15.07;2.03;;;13.90;75.00;;;;;;7373306;19;20029;-79
2022/11/18 10:47:28;;;;;;;10.02;1.70;;;14.10;74.70;;;;;;7372919;19;20517;-78
2022/11/18 10:49:59;;;;;;;8.70;1.75;;;14.10;73.80;;;;;;7372951;19;20021;-77
2022/11/18 10:52:29;;;;;;;17.70;3.03;;;14.20;73.30;;;;;;7374644;19;20050;-79
2022/11/18 10:55:23;;;;;;;38.33;16.35;;;14.10;73.20;;;;;;7374298;19;20041;-79
2022/11/18 10:57:58;;;;;;;17.80;5.63;;;14.20;73.60;;;;;;7374319;19;20452;-79
2022/11/18 11:00:42;;;;;;;15.30;4.38;;;14.10;73.80;;;;;;7372557;19;20030;-79
2022/11/18 11:03:28;;;;;;;16.25;3.47;;;13.90;74.30;;;;;;7407329;19;20014;-79
2022/11/18 11:06:34;;;;;;;14.55;2.30;;;14.10;74.10;;;;;;7379922;19;20509;-82
2022/11/18 11:09:11;;;;;;;14.65;2.28;;;14.30;73.40;;;;;;7371166;19;20094;-79
2022/11/18 11:11:42;;;;;;;12.10;1.92;;;14.40;73.80;;;;;;7369545;19;20616;-80
2022/11/18 11:14:26;;;;;;;11.02;1.75;;;14.50;72.90;;;;;;7369384;19;20521;-79
2022/11/18 11:17:04;;;;;;;7.93;1.38;;;14.50;72.10;;;;;;7369242;19;20541;-82
2022/11/18 11:19:44;;;;;;;10.65;1.90;;;14.60;71.80;;;;;;7366059;19;20099;-83
2022/11/18 11:22:14;;;;;;;8.30;1.50;;;14.60;71.80;;;;;;7366053;19;20105;-79
2022/11/18 11:24:43;;;;;;;12.57;1.45;;;14.60;71.20;;;;;;7370754;19;20086;-79
2022/11/18 11:27:26;;;;;;;10.32;1.58;;;14.60;71.70;;;;;;7392790;19;20028;-80
2022/11/18 11:30:20;;;;;;;18.67;1.98;;;14.40;71.70;;;;;;7372407;19;20129;-80
2022/11/18 11:33:17;;;;;;;15.10;2.90;;;14.40;72.70;;;;;;7370924;19;20097;-79
2022/11/18 11:36:01;;;;;;;15.85;2.10;;;14.60;72.20;;;;;;7369785;19;20018;-81
2022/11/18 11:38:53;;;;;;;10.25;1.60;;;14.70;71.80;;;;;;7369466;19;20014;-80
2022/11/18 11:41:25;;;;;;;14.13;1.58;;;14.70;71.60;;;;;;7369443;19;20010;-80
2022/11/18 11:44:02;;;;;;;;;;;14.80;71.60;;;;;;7368024;19;20379;-80
2022/11/18 11:46:44;;;;;;;11.02;1.52;;;14.80;71.50;;;;;;7371275;19;20002;-79
2022/11/18 11:49:18;;;;;;;;;;;14.80;70.80;;;;;;7372804;19;20110;-79
2022/11/18 11:51:53;;;;;;;8.50;1.58;;;14.60;70.90;;;;;;7370622;19;19915;-80
2022/11/18 11:54:49;;;;;;;9.88;1.50;;;14.60;71.40;;;;;;7369751;19;20396;-80
2022/11/18 11:57:30;;;;;;;8.50;1.73;;;14.70;71.60;;;;;;7369176;19;20011;-80
2022/11/18 12:00:04;;;;;;;8.73;1.60;;;14.80;71.00;;;;;;7394181;19;20039;-80
2022/11/18 12:02:55;;;;;;;14.45;1.98;;;14.60;70.80;;;;;;7371323;19;20023;-79
2022/11/18 12:05:29;;;;;;;13.68;1.92;;;14.70;71.50;;;;;;7370167;19;20486;-80
2022/11/18 12:08:03;;;;;;;12.30;2.22;;;14.80;70.80;;;;;;7371792;19;20035;-79
2022/11/18 12:10:39;;;;;;;19.80;2.00;;;14.60;71.30;;;;;;7370254;19;20010;-80
2022/11/18 12:13:35;;;;;;;6.72;1.70;;;14.70;71.20;;;;;;7369296;19;20453;-80
2022/11/18 12:16:20;;;;;;;14.57;1.92;;;14.70;71.50;;;;;;7370176;19;20026;-80
2022/11/18 12:18:54;;;;;;;13.43;1.83;;;14.80;71.20;;;;;;7368797;19;20026;-80
2022/11/18 12:21:54;;;;;;;16.10;1.92;;;14.90;70.80;;;;;;7370017;19;20546;-80
2022/11/18 12:24:37;;;;;;;11.88;1.58;;;14.70;71.10;;;;;;7371240;19;20018;-80
2022/11/18 12:27:12;;;;;;;13.02;1.80;;;14.80;70.80;;;;;;7392471;19;20328;-80
2022/11/18 12:29:45;;;;;;;9.50;1.40;;;14.90;70.30;;;;;;7374009;19;20085;-80
2022/11/18 12:32:33;;;;;;;13.88;2.17;;;15.00;69.90;;;;;;7372019;19;20388;-80
2022/11/18 12:35:07;;;;;;;12.10;1.55;;;14.90;69.30;;;;;;7369582;19;20047;-79
2022/11/18 12:37:58;;;;;;;16.85;4.75;;;14.90;69.60;;;;;;7369068;19;20121;-81
2022/11/18 12:40:40;;;;;;;25.77;10.20;;;14.80;70.20;;;;;;7370324;19;20025;-80
2022/11/18 12:43:47;;;;;;;19.30;5.57;;;14.90;70.50;;;;;;7371294;19;20130;-82
2022/11/18 12:46:47;;;;;;;17.92;3.60;;;14.90;71.10;;;;;;7370633;19;20339;-82
2022/11/18 12:49:46;;;;;;;15.95;4.50;;;14.90;70.80;;;;;;7370625;19;20026;-82
2022/11/18 12:52:44;;;;;;;13.05;2.38;;;14.90;70.50;;;;;;7373072;19;20014;-84
2022/11/18 12:55:17;;;;;;;13.98;2.30;;;14.80;71.10;;;;;;7372680;19;20604;-82
2022/11/18 12:57:48;;;;;;;11.50;2.50;;;14.90;71.60;;;;;;7368435;19;20018;-82
2022/11/18 13:00:20;;;;;;;10.52;1.95;;;15.00;70.40;;;;;;7371498;19;20018;-83
2022/11/18 13:02:54;;;;;;;13.88;1.77;;;15.00;70.40;;;;;;7392980;19;20026;-85
2022/11/18 13:05:24;;;;;;;9.10;1.90;;;15.10;70.10;;;;;;7369433;19;20022;-83
2022/11/18 13:10:45;;;;;;;9.00;1.52;;;15.40;69.50;;;;;;7369079;19;20281;-80
2022/11/18 13:13:24;;;;;;;7.53;1.48;;;15.60;69.70;;;;;;7366755;19;21338;-80
2022/11/18 13:18:49;;;;;;;6.55;1.42;;;15.50;66.50;;;;;;7370365;19;20015;-77
2022/11/18 13:24:14;;;;;;;6.90;1.50;;;15.60;67.20;;;;;;7391732;19;20014;-80
2022/11/18 13:26:45;;;;;;;8.85;1.42;;;15.70;66.00;;;;;;7369003;19;20118;-78
2022/11/18 13:29:34;;;;;;;12.07;1.67;;;15.50;66.30;;;;;;7367601;19;20099;-78
2022/11/18 13:32:17;;;;;;;9.45;1.50;;;15.40;66.60;;;;;;7367939;19;20469;-79
2022/11/18 13:34:49;;;;;;;10.25;1.90;;;15.50;66.60;;;;;;7369356;19;20462;-78
2022/11/18 13:37:21;;;;;;;12.75;1.75;;;15.50;66.40;;;;;;7371937;19;20113;-78
2022/11/18 13:39:50;;;;;;;13.57;1.48;;;15.60;66.60;;;;;;7374217;19;20566;-78